Terminal Aerodrome Forecast
Issued by NWS

Home | Current Version | Previous Version | Text Only | Print | Product List | Glossary On
Versions: 1 2 3 4 5 6 7 8 9 10 11 12 13 14 15 16 17 18 19 20 21 22 23 24 25 26 27 28 29 30 31 32 33 34 35 36 37 38 39 40 41 42 43 44
000
FTUS44 KHGX 260805 AAA
TAFCXO
TAF AMD
KCXO 260805Z 2608/2706 VRB02KT 3SM BR SCT003 SCT020
      TEMPO 2608/2612 1/2SM FG VV002
     FM261400 VRB02KT P6SM VCSH SCT008 BKN030
     FM261700 VRB03KT P6SM VCTS SCT040CB
      TEMPO 2619/2623 VRB10G20KT TSRA
     FM270100 VRB04KT P6SM FEW035=

USA.gov is the U.S. government's official web portal to all federal, state and local government web resources and services.